Time;durP1;ratioP1;P1;durP2;ratioP2;P2;SDS_P1;SDS_P2;PMS_P1;PMS_P2;Temp;Humidity;BMP_temperature;BMP_pressure;BME280_temperature;BME280_humidity;BME280_pressure;Samples;Min_cycle;Max_cycle;Signal;HPM_P1;HPM_P2
2022/04/16 00:02:00;;;;;;;;;;;9.00;99.90;;;;;;5075932;28;19916;-47
2022/04/16 00:04:29;;;;;;;;;;;9.00;99.90;;;;;;5076100;28;20317;-45
2022/04/16 00:06:55;;;;;;;;;;;9.00;99.90;;;;;;5075739;28;19912;-46
2022/04/16 00:09:20;;;;;;;;;;;8.90;99.90;;;;;;5075806;28;20334;-44
2022/04/16 00:11:46;;;;;;;;;;;9.00;99.90;;;;;;5076061;28;20010;-44
2022/04/16 00:14:12;;;;;;;;;;;8.90;99.90;;;;;;5075772;28;20000;-42
2022/04/16 00:16:38;;;;;;;;;;;9.00;99.90;;;;;;5075503;28;20053;-42
2022/04/16 00:19:04;;;;;;;;;;;8.90;99.90;;;;;;5075832;28;19977;-45
2022/04/16 00:21:30;;;;;;;;;;;8.80;99.90;;;;;;5075547;28;19912;-47
2022/04/16 00:23:57;;;;;;;;;;;8.80;99.90;;;;;;5075465;28;19995;-44
2022/04/16 00:26:23;;;;;;;;;;;8.80;99.90;;;;;;5075395;28;19908;-47
2022/04/16 00:28:50;;;;;;;;;;;8.80;99.90;;;;;;5075640;28;19909;-44
2022/04/16 00:31:15;;;;;;;;;;;8.80;99.90;;;;;;5075518;28;20363;-43
2022/04/16 00:33:41;;;;;;;;;;;8.80;99.90;;;;;;5074575;28;19930;-43
2022/04/16 00:36:06;;;;;;;;;;;8.80;99.90;;;;;;5075386;28;19958;-45
2022/04/16 00:38:32;;;;;;;;;;;8.70;99.90;;;;;;5074342;28;19956;-44
2022/04/16 00:40:58;;;;;;;;;;;8.60;99.90;;;;;;5075680;28;19908;-43
2022/04/16 00:43:25;;;;;;;;;;;8.60;99.90;;;;;;5075718;28;19915;-46
2022/04/16 00:45:52;;;;;;;;;;;8.60;99.90;;;;;;5075030;28;19932;-43
2022/04/16 00:48:18;;;;;;;;;;;8.50;99.90;;;;;;5075360;28;19928;-45
2022/04/16 00:50:44;;;;;;;;;;;8.60;99.90;;;;;;5075273;28;19909;-44
2022/04/16 00:53:10;;;;;;;;;;;8.60;99.90;;;;;;5075196;28;19999;-43
2022/04/16 00:55:36;;;;;;;;;;;8.60;99.90;;;;;;5074710;28;20333;-45
2022/04/16 00:58:02;;;;;;;;;;;8.40;99.90;;;;;;5073685;28;20447;-44
2022/04/16 01:00:28;;;;;;;;;;;8.50;99.90;;;;;;5074883;28;19952;-42
2022/04/16 01:02:55;;;;;;;;;;;8.50;99.90;;;;;;5075005;28;19915;-43
2022/04/16 01:05:21;;;;;;;;;;;8.50;99.90;;;;;;5074728;28;20309;-44
2022/04/16 01:07:48;;;;;;;;;;;8.50;99.90;;;;;;5074483;28;19962;-44
2022/04/16 01:10:13;;;;;;;;;;;8.40;99.90;;;;;;5074792;28;20362;-47
2022/04/16 01:12:39;;;;;;;;;;;8.40;99.90;;;;;;5074331;28;19913;-45
2022/04/16 01:15:05;;;;;;;;;;;8.30;99.90;;;;;;5074101;28;19917;-42
2022/04/16 01:17:31;;;;;;;;;;;8.30;99.90;;;;;;5074148;28;19974;-44
2022/04/16 01:19:57;;;;;;;;;;;8.30;99.90;;;;;;5074500;28;19913;-43
2022/04/16 01:22:27;;;;;;;;;;;8.30;99.90;;;;;;5074148;28;19908;-44
2022/04/16 01:24:52;;;;;;;;;;;8.40;99.90;;;;;;5074174;28;20268;-43
2022/04/16 01:27:18;;;;;;;;;;;8.30;99.90;;;;;;5090040;28;19909;-44
2022/04/16 01:29:44;;;;;;;;;;;8.30;99.90;;;;;;5074154;28;20305;-48
2022/04/16 01:32:10;;;;;;;;;;;8.20;99.90;;;;;;5074095;28;19912;-47
2022/04/16 01:34:36;;;;;;;;;;;8.20;99.90;;;;;;5073935;28;19934;-44
2022/04/16 01:37:02;;;;;;;;;;;8.40;99.90;;;;;;5073967;28;19950;-46
2022/04/16 01:39:28;;;;;;;;;;;8.40;99.90;;;;;;5074091;28;19997;-47
2022/04/16 01:41:54;;;;;;;;;;;8.40;99.90;;;;;;5073944;28;20252;-43
2022/04/16 01:44:20;;;;;;;;;;;8.40;99.90;;;;;;5073795;28;19919;-44
2022/04/16 01:46:46;;;;;;;;;;;8.30;99.90;;;;;;5073814;28;20365;-42
2022/04/16 01:49:12;;;;;;;;;;;8.20;99.90;;;;;;5074113;28;19915;-45
2022/04/16 01:51:37;;;;;;;;;;;8.10;99.90;;;;;;5074080;28;19908;-46
2022/04/16 01:54:03;;;;;;;;;;;8.10;99.90;;;;;;5074037;28;19995;-43
2022/04/16 01:56:29;;;;;;;;;;;8.10;99.90;;;;;;5073572;28;19920;-43
2022/04/16 01:58:55;;;;;;;;;;;8.20;99.90;;;;;;5073826;28;19958;-45
2022/04/16 02:01:22;;;;;;;;;;;8.20;99.90;;;;;;5073823;28;19939;-44
2022/04/16 02:03:48;;;;;;;;;;;8.20;99.90;;;;;;5073929;28;19908;-43
2022/04/16 02:06:13;;;;;;;;;;;8.20;99.90;;;;;;5073644;28;19962;-43
2022/04/16 02:08:39;;;;;;;;;;;8.20;99.90;;;;;;5073863;28;19938;-46
2022/04/16 02:11:04;;;;;;;;;;;8.30;99.90;;;;;;5073652;28;19908;-43
2022/04/16 02:13:31;;;;;;;;;;;8.20;99.90;;;;;;5073730;28;19913;-44
2022/04/16 02:15:56;;;;;;;;;;;8.20;99.90;;;;;;5073485;28;20371;-46
2022/04/16 02:18:23;;;;;;;;;;;8.10;99.90;;;;;;5073734;28;19916;-44
2022/04/16 02:20:49;;;;;;;;;;;8.10;99.90;;;;;;5073790;28;19908;-45
2022/04/16 02:23:15;;;;;;;;;;;8.10;99.90;;;;;;5073846;28;19913;-45
2022/04/16 02:25:41;;;;;;;;;;;8.10;99.90;;;;;;5073846;28;20359;-44
2022/04/16 02:28:07;;;;;;;;;;;8.00;99.90;;;;;;5089393;28;19908;-46
2022/04/16 02:30:32;;;;;;;;;;;8.10;99.90;;;;;;5073519;28;20232;-44
2022/04/16 02:32:58;;;;;;;;;;;7.90;99.90;;;;;;5073690;28;20275;-45
2022/04/16 02:35:24;;;;;;;;;;;7.80;99.90;;;;;;5073278;28;19913;-44
2022/04/16 02:37:49;;;;;;;;;;;7.80;99.90;;;;;;5074099;28;19916;-47
2022/04/16 02:40:15;;;;;;;;;;;7.90;99.90;;;;;;5073629;28;19908;-46
2022/04/16 02:42:42;;;;;;;;;;;7.90;99.90;;;;;;5073406;28;19908;-43
2022/04/16 02:47:53;;;;;;;;;;;7.70;99.90;;;;;;5073774;28;19915;-45
2022/04/16 02:50:19;;;;;;;;;;;7.60;99.90;;;;;;5073604;28;19909;-44
2022/04/16 02:52:46;;;;;;;;;;;7.60;99.90;;;;;;5073265;28;19909;-42
2022/04/16 02:55:15;;;;;;;;;;;7.50;99.90;;;;;;5073191;28;19919;-42
2022/04/16 02:57:42;;;;;;;;;;;7.50;99.90;;;;;;5076460;28;19921;-45
2022/04/16 03:00:09;;;;;;;;;;;7.40;99.90;;;;;;5077369;28;19916;-44
2022/04/16 03:02:35;;;;;;;;;;;7.50;99.90;;;;;;5077334;28;20013;-46
2022/04/16 03:05:02;;;;;;;;;;;7.40;99.90;;;;;;5077199;28;20359;-43
2022/04/16 03:07:27;;;;;;;;;;;7.40;99.90;;;;;;5077178;28;19909;-45
2022/04/16 03:09:53;;;;;;;;;;;7.40;99.90;;;;;;5077403;28;19915;-43
2022/04/16 03:12:18;;;;;;;;;;;7.40;99.90;;;;;;5077060;28;19970;-43
2022/04/16 03:17:35;;;;;;;;;;;7.30;99.90;;;;;;5076771;28;19958;-45
2022/04/16 03:20:06;;;;;;;;;;;7.30;99.90;;;;;;5077384;28;19912;-44
2022/04/16 03:22:32;;;;;;;;;;;7.30;99.90;;;;;;5109379;28;19970;-45
2022/04/16 03:24:58;;;;;;;;;;;7.20;99.90;;;;;;5076639;28;19916;-44
2022/04/16 03:27:24;;;;;;;;;;;7.20;99.90;;;;;;5076781;28;19916;-48
2022/04/16 03:29:49;;;;;;;;;;;7.30;99.90;;;;;;5076748;28;19913;-44
2022/04/16 03:32:15;;;;;;;;;;;7.40;99.90;;;;;;5076472;28;20225;-44
2022/04/16 03:34:40;;;;;;;;;;;7.30;99.90;;;;;;5074932;28;19920;-45
2022/04/16 03:37:06;;;;;;;;;;;7.30;99.90;;;;;;5076273;28;19921;-45
2022/04/16 03:39:32;;;;;;;;;;;7.30;99.90;;;;;;5076587;28;19915;-44
2022/04/16 03:41:57;;;;;;;;;;;7.30;99.90;;;;;;5076225;28;19908;-44
2022/04/16 03:44:23;;;;;;;;;;;7.20;99.90;;;;;;5076754;28;19959;-45
2022/04/16 03:46:48;;;;;;;;;;;7.20;99.90;;;;;;5075094;28;20266;-44
2022/04/16 03:49:14;;;;;;;;;;;7.20;99.90;;;;;;5076709;28;19915;-46
2022/04/16 03:51:39;;;;;;;;;;;7.20;99.90;;;;;;5076118;28;19912;-46
2022/04/16 04:02:17;;;;;;;;;;;7.00;99.90;;;;;;5076304;28;19915;-43
2022/04/16 04:04:43;;;;;;;;;;;7.10;99.90;;;;;;5075765;28;19908;-44
2022/04/16 04:07:10;;;;;;;;;;;6.90;99.90;;;;;;5075537;28;19908;-44
2022/04/16 04:09:37;;;;;;;;;;;6.90;99.90;;;;;;5075894;28;19916;-46
2022/04/16 04:12:13;;;;;;;;;;;6.90;99.90;;;;;;5076126;28;19920;-46
2022/04/16 04:14:39;;;;;;;;;;;6.80;99.90;;;;;;5075322;28;19912;-45
2022/04/16 04:17:08;;;;;;;;;;;6.80;99.90;;;;;;5075818;28;19974;-44
2022/04/16 04:19:35;;;;;;;;;;;6.90;99.90;;;;;;5075801;28;19915;-44
2022/04/16 04:22:01;;;;;;;;;;;6.90;99.90;;;;;;5075473;28;19954;-45
2022/04/16 04:24:26;;;;;;;;;;;6.90;99.90;;;;;;5091304;28;19955;-45
2022/04/16 04:26:54;;;;;;;;;;;6.90;99.90;;;;;;5075725;28;19909;-44
2022/04/16 04:29:19;;;;;;;;;;;6.90;99.90;;;;;;5075283;28;20011;-46
2022/04/16 04:31:45;;;;;;;;;;;6.90;99.90;;;;;;5075556;28;19955;-45
2022/04/16 04:34:10;;;;;;;;;;;6.90;99.90;;;;;;5075177;28;19928;-44
2022/04/16 04:36:36;;;;;;;;;;;7.00;99.90;;;;;;5075416;28;19928;-44
2022/04/16 04:39:01;;;;;;;;;;;6.90;99.90;;;;;;5075501;28;19915;-43
2022/04/16 04:41:27;;;;;;;;;;;7.00;99.90;;;;;;5075021;28;19970;-43
2022/04/16 04:43:52;;;;;;;;;;;7.00;99.90;;;;;;5075328;28;19940;-44
2022/04/16 04:46:18;;;;;;;;;;;7.00;99.90;;;;;;5075054;28;19908;-45
2022/04/16 04:48:43;;;;;;;;;;;7.10;99.90;;;;;;5074851;28;19909;-44
2022/04/16 04:51:09;;;;;;;;;;;7.00;99.90;;;;;;5074739;28;19912;-47
2022/04/16 04:53:34;;;;;;;;;;;6.90;99.90;;;;;;5074949;28;19915;-45
2022/04/16 04:56:00;;;;;;;;;;;7.00;99.90;;;;;;5074691;28;20420;-44
2022/04/16 04:58:25;;;;;;;;;;;7.00;99.90;;;;;;5074676;28;19912;-46
2022/04/16 05:00:51;;;;;;;;;;;7.10;99.90;;;;;;5075258;28;19916;-44
2022/04/16 05:03:16;;;;;;;;;;;7.30;99.90;;;;;;5074682;28;19913;-43
2022/04/16 05:05:42;;;;;;;;;;;7.40;99.90;;;;;;5074493;28;20040;-42
2022/04/16 05:08:07;;;;;;;;;;;7.50;99.90;;;;;;5074771;28;19908;-43
2022/04/16 05:10:33;;;;;;;;;;;7.50;99.90;;;;;;5074643;28;19908;-48
2022/04/16 05:12:58;;;;;;;;;;;7.50;99.90;;;;;;5074572;28;19909;-46
2022/04/16 05:15:24;;;;;;;;;;;7.60;99.90;;;;;;5074354;28;19912;-45
2022/04/16 05:17:49;;;;;;;;;;;7.70;99.90;;;;;;5074506;28;19912;-44
2022/04/16 05:20:16;;;;;;;;;;;7.70;99.90;;;;;;5073582;28;19915;-44
2022/04/16 05:22:41;;;;;;;;;;;7.70;99.90;;;;;;5074524;28;19909;-45
2022/04/16 05:25:07;;;;;;;;;;;7.70;99.90;;;;;;5074131;28;19908;-45
2022/04/16 05:27:34;;;;;;;;;;;7.90;99.90;;;;;;5074308;28;19915;-45
2022/04/16 05:30:22;;;;;;;;;;;8.00;99.90;;;;;;5074333;28;19964;-47
2022/04/16 05:32:50;;;;;;;;;;;8.00;99.90;;;;;;5074188;28;19925;-45
2022/04/16 05:35:15;;;;;;;;;;;8.00;99.90;;;;;;5074227;28;19913;-43
2022/04/16 05:37:41;;;;;;;;;;;8.00;99.90;;;;;;5073884;28;19958;-43
2022/04/16 05:40:07;;;;;;;;;;;8.00;99.90;;;;;;5073752;28;19938;-43
2022/04/16 05:42:38;;;;;;;;;;;8.10;99.90;;;;;;5073894;28;19954;-45
2022/04/16 05:45:03;;;;;;;;;;;8.00;99.90;;;;;;5073509;28;20003;-44
2022/04/16 05:47:29;;;;;;;;;;;7.90;99.90;;;;;;5073741;28;19948;-44
2022/04/16 05:49:55;;;;;;;;;;;7.80;99.90;;;;;;5073712;28;19931;-46
2022/04/16 05:52:22;;;;;;;;;;;7.80;99.90;;;;;;5073711;28;19977;-45
2022/04/16 05:54:48;;;;;;;;;;;7.90;99.90;;;;;;5106342;28;19913;-43
2022/04/16 05:57:14;;;;;;;;;;;8.00;99.90;;;;;;5073508;28;19913;-44
2022/04/16 05:59:40;;;;;;;;;;;8.00;99.90;;;;;;5073413;28;19957;-44
2022/04/16 06:02:05;;;;;;;;;;;8.20;99.90;;;;;;5072449;28;19909;-44
2022/04/16 06:04:31;;;;;;;;;;;8.30;99.90;;;;;;5073821;28;20085;-44
2022/04/16 06:06:56;;;;;;;;;;;8.30;99.90;;;;;;5073601;28;19912;-46
2022/04/16 06:09:22;;;;;;;;;;;8.20;99.90;;;;;;5073559;28;20369;-47
2022/04/16 06:11:48;;;;;;;;;;;8.50;99.90;;;;;;5073452;28;20359;-44
2022/04/16 06:14:14;;;;;;;;;;;8.50;99.90;;;;;;5073593;28;19948;-46
2022/04/16 06:16:40;;;;;;;;;;;8.40;99.90;;;;;;5073790;28;20324;-45
2022/04/16 06:19:05;;;;;;;;;;;8.50;99.90;;;;;;5073733;28;20347;-47
2022/04/16 06:21:31;;;;;;;;;;;8.50;99.90;;;;;;5073120;28;19908;-48
2022/04/16 06:23:57;;;;;;;;;;;8.70;99.90;;;;;;5073118;28;19908;-44
2022/04/16 06:26:25;;;;;;;;;;;8.70;99.90;;;;;;5073061;28;19934;-45
2022/04/16 06:28:51;;;;;;;;;;;8.80;99.90;;;;;;5073302;28;19915;-47
2022/04/16 06:31:17;;;;;;;;;;;8.70;99.90;;;;;;5073794;28;19908;-45
2022/04/16 06:33:42;;;;;;;;;;;8.60;99.90;;;;;;5077446;28;19921;-42
2022/04/16 06:36:08;;;;;;;;;;;8.60;99.90;;;;;;5077125;28;20355;-44
2022/04/16 06:38:33;;;;;;;;;;;8.70;99.90;;;;;;5077475;28;19913;-44
2022/04/16 06:40:59;;;;;;;;;;;8.70;99.90;;;;;;5077147;28;19920;-45
2022/04/16 06:43:24;;;;;;;;;;;8.80;99.90;;;;;;5077674;28;20310;-44
2022/04/16 06:45:50;;;;;;;;;;;8.70;99.90;;;;;;5077011;28;19908;-44
2022/04/16 06:48:15;;;;;;;;;;;8.80;99.90;;;;;;5077354;28;20367;-44
2022/04/16 06:50:41;;;;;;;;;;;8.90;99.90;;;;;;5077002;28;19909;-43
2022/04/16 06:53:06;;;;;;;;;;;9.10;99.90;;;;;;5077019;28;20363;-47
2022/04/16 06:55:32;;;;;;;;;;;9.10;99.90;;;;;;5076781;28;19912;-45
2022/04/16 06:57:57;;;;;;;;;;;8.90;99.90;;;;;;5076713;28;19912;-42
2022/04/16 07:00:23;;;;;;;;;;;9.00;99.90;;;;;;5076813;28;19931;-47
2022/04/16 07:02:49;;;;;;;;;;;9.10;99.90;;;;;;5076894;28;20002;-43
2022/04/16 07:05:14;;;;;;;;;;;9.20;99.90;;;;;;5076523;28;19963;-45
2022/04/16 07:07:40;;;;;;;;;;;9.20;99.90;;;;;;5076905;28;19961;-45
2022/04/16 07:10:06;;;;;;;;;;;9.20;99.90;;;;;;5076682;28;20244;-43
2022/04/16 07:12:32;;;;;;;;;;;9.10;99.90;;;;;;5076490;28;19916;-46
2022/04/16 07:14:58;;;;;;;;;;;9.20;99.90;;;;;;5076168;28;19912;-44
2022/04/16 07:17:23;;;;;;;;;;;9.00;99.90;;;;;;5076634;28;19912;-44
2022/04/16 07:19:49;;;;;;;;;;;8.90;99.90;;;;;;5076157;28;20260;-43
2022/04/16 07:22:18;;;;;;;;;;;8.80;99.90;;;;;;5076156;28;19908;-45
2022/04/16 07:24:45;;;;;;;;;;;8.70;99.90;;;;;;5076201;28;19931;-46
2022/04/16 07:27:11;;;;;;;;;;;8.60;99.90;;;;;;5108773;28;19916;-44
2022/04/16 07:29:36;;;;;;;;;;;8.60;99.90;;;;;;5075783;28;19910;-45
2022/04/16 07:32:02;;;;;;;;;;;8.80;99.90;;;;;;5076141;28;19909;-43
2022/04/16 07:34:27;;;;;;;;;;;8.70;99.90;;;;;;5076235;28;20351;-43
2022/04/16 07:36:53;;;;;;;;;;;8.70;99.90;;;;;;5075624;28;19912;-47
2022/04/16 07:39:19;;;;;;;;;;;8.50;99.90;;;;;;5075925;28;20299;-45
2022/04/16 07:41:44;;;;;;;;;;;8.50;99.90;;;;;;5075784;28;20355;-46
2022/04/16 07:44:09;;;;;;;;;;;8.60;99.90;;;;;;5075423;28;19908;-44
2022/04/16 07:46:35;;;;;;;;;;;8.50;99.90;;;;;;5075812;28;19970;-45
2022/04/16 07:49:01;;;;;;;;;;;8.40;99.90;;;;;;5075724;28;20424;-43
2022/04/16 07:51:27;;;;;;;;;;;8.20;99.90;;;;;;5075890;28;19908;-44
2022/04/16 07:53:53;;;;;;;;;;;8.20;99.90;;;;;;5075526;28;19930;-45
2022/04/16 07:56:19;;;;;;;;;;;8.40;99.90;;;;;;5075538;28;19938;-47
2022/04/16 07:58:45;;;;;;;;;;;8.40;99.90;;;;;;5075694;28;19912;-44
2022/04/16 08:01:10;;;;;;;;;;;8.40;99.90;;;;;;5075615;28;19999;-45
2022/04/16 08:03:36;;;;;;;;;;;8.50;99.90;;;;;;5075320;28;20351;-46
2022/04/16 08:06:01;;;;;;;;;;;8.40;99.90;;;;;;5075021;28;19908;-47
2022/04/16 08:08:27;;;;;;;;;;;8.60;99.90;;;;;;5075530;28;19909;-44
2022/04/16 08:10:53;;;;;;;;;;;8.60;99.90;;;;;;5075299;28;19995;-46
2022/04/16 08:13:19;;;;;;;;;;;8.60;99.90;;;;;;5074176;28;19944;-43
2022/04/16 08:15:48;;;;;;;;;;;8.50;99.90;;;;;;5074982;28;20011;-43
2022/04/16 08:18:14;;;;;;;;;;;8.60;99.90;;;;;;5075258;28;19913;-43
2022/04/16 08:20:39;;;;;;;;;;;8.70;99.90;;;;;;5075486;28;20416;-45
2022/04/16 08:23:06;;;;;;;;;;;8.80;99.90;;;;;;5075323;28;19908;-44
2022/04/16 08:28:01;;;;;;;;;;;8.90;99.90;;;;;;5075193;28;19915;-45
2022/04/16 08:30:27;;;;;;;;;;;8.90;99.90;;;;;;5074465;28;19916;-43
2022/04/16 08:32:53;;;;;;;;;;;9.10;99.90;;;;;;5074157;28;19928;-45
2022/04/16 08:35:19;;;;;;;;;;;9.40;99.90;;;;;;5074540;28;19924;-45
2022/04/16 08:37:45;;;;;;;;;;;9.50;99.90;;;;;;5075016;28;19966;-47
2022/04/16 08:40:12;;;;;;;;;;;9.70;99.90;;;;;;5074355;28;19908;-45
2022/04/16 08:42:38;;;;;;;;;;;9.60;99.90;;;;;;5074904;28;19995;-45
2022/04/16 08:45:05;;;;;;;;;;;9.60;99.90;;;;;;5074425;28;19962;-45
2022/04/16 08:47:31;;;;;;;;;;;9.20;99.90;;;;;;5107101;28;19996;-45
2022/04/16 08:49:56;;;;;;;;;;;8.90;99.90;;;;;;5074355;28;19944;-47
2022/04/16 08:52:22;;;;;;;;;;;8.80;99.90;;;;;;5074658;28;19915;-45
2022/04/16 08:54:48;;;;;;;;;;;9.00;99.90;;;;;;5073595;28;19912;-46
2022/04/16 08:57:13;;;;;;;;;;;9.10;99.90;;;;;;5074163;28;19913;-44
2022/04/16 08:59:39;;;;;;;;;;;9.30;99.90;;;;;;5074283;28;19920;-45
2022/04/16 09:02:05;;;;;;;;;;;9.40;99.90;;;;;;5074602;28;20236;-43
2022/04/16 09:04:33;;;;;;;;;;;9.50;99.90;;;;;;5074475;28;19916;-48
2022/04/16 09:07:01;;;;;;;;;;;9.70;99.90;;;;;;5074502;28;19913;-46
2022/04/16 09:09:26;;;;;;;;;;;9.70;99.90;;;;;;5074429;28;20270;-44
2022/04/16 09:11:52;;;;;;;;;;;9.80;99.90;;;;;;5074453;28;19908;-44
2022/04/16 09:14:17;;;;;;;;;;;9.60;99.90;;;;;;5074152;28;19909;-45
2022/04/16 09:16:43;;;;;;;;;;;9.50;99.90;;;;;;5073876;28;19917;-50
2022/04/16 09:19:12;;;;;;;;;;;9.60;99.90;;;;;;5073886;28;19915;-45
2022/04/16 09:21:38;;;;;;;;;;;9.20;99.90;;;;;;5074014;28;19909;-43
2022/04/16 09:24:04;;;;;;;;;;;9.30;99.90;;;;;;5073933;28;19909;-43
2022/04/16 09:26:33;;;;;;;;;;;9.30;99.90;;;;;;5073527;28;19919;-45
2022/04/16 09:29:07;;;;;;;;;;;9.40;99.90;;;;;;5073824;28;19909;-44
2022/04/16 09:31:34;;;;;;;;;;;9.50;99.90;;;;;;5073892;28;19909;-44
2022/04/16 09:34:00;;;;;;;;;;;9.70;99.90;;;;;;5089270;28;19925;-44
2022/04/16 09:36:26;;;;;;;;;;;9.80;99.90;;;;;;5073540;28;19920;-47
2022/04/16 09:39:01;;;;;;;;;;;10.00;99.90;;;;;;5073316;28;19912;-46
2022/04/16 09:41:40;;;;;;;;;;;10.00;99.90;;;;;;5073187;28;20020;-47
2022/04/16 09:44:22;;;;;;;;;;;9.50;99.90;;;;;;5072292;28;19915;-44
2022/04/16 09:46:48;;;;;;;;;;;9.60;99.90;;;;;;5073364;28;20275;-46
2022/04/16 09:49:15;;;;;;;;;;;9.60;99.90;;;;;;5073199;28;19909;-46
2022/04/16 09:51:42;;;;;;;;;;;9.30;99.90;;;;;;5073155;28;19909;-45
2022/04/16 09:54:09;;;;;;;;;;;9.30;99.90;;;;;;5073213;28;19913;-46
2022/04/16 09:56:36;;;;;;;;;;;9.70;99.90;;;;;;5073333;28;20370;-45
2022/04/16 09:59:02;;;;;;;;;;;9.90;99.90;;;;;;5073196;28;19920;-48
2022/04/16 10:01:29;;;;;;;;;;;10.00;99.90;;;;;;5073354;28;19909;-45
2022/04/16 10:03:55;;;;;;;;;;;10.00;99.90;;;;;;5073547;28;19954;-45
2022/04/16 10:06:20;;;;;;;;;;;10.50;99.90;;;;;;5073007;28;19908;-44
2022/04/16 10:08:48;;;;;;;;;;;10.90;99.90;;;;;;5073398;28;19908;-44
2022/04/16 10:11:20;;;;;;;;;;;11.20;99.90;;;;;;5072894;28;19909;-43
2022/04/16 10:13:58;;;;;;;;;;;11.40;99.90;;;;;;5073214;28;20003;-47
2022/04/16 10:16:34;;;;;;;;;;;11.80;99.90;;;;;;5073014;28;19916;-45
2022/04/16 10:19:00;;;;;;;;;;;11.60;99.90;;;;;;5073685;28;19923;-44
2022/04/16 10:21:31;;;;;;;;;;;11.70;99.90;;;;;;5073464;28;19909;-45
2022/04/16 10:24:00;;;;;;;;;;;11.90;99.90;;;;;;5073183;28;20370;-47
2022/04/16 10:26:37;;;;;;;;;;;11.80;99.90;;;;;;5072987;28;19909;-45
2022/04/16 10:29:03;;;;;;;;;;;11.90;99.90;;;;;;5073276;28;19908;-45
2022/04/16 10:31:29;;;;;;;;;;;11.70;99.90;;;;;;5073064;28;19961;-46
2022/04/16 10:33:57;;;;;;;;;;;11.00;99.90;;;;;;5073451;28;20007;-45
2022/04/16 10:36:32;;;;;;;;;;;10.70;99.90;;;;;;5072972;28;19912;-48
2022/04/16 10:38:58;;;;;;;;;;;10.40;99.90;;;;;;5072843;28;20021;-45
2022/04/16 10:41:25;;;;;;;;;;;10.00;99.90;;;;;;5072839;28;19909;-47
2022/04/16 10:43:55;;;;;;;;;;;9.70;99.90;;;;;;5072980;28;19909;-44
2022/04/16 10:46:21;;;;;;;;;;;9.90;99.90;;;;;;5072842;28;19920;-48
2022/04/16 10:48:48;;;;;;;;;;;9.90;99.90;;;;;;5072203;28;19913;-44
2022/04/16 10:51:17;;;;;;;;;;;9.60;99.90;;;;;;5072802;28;20276;-44
2022/04/16 10:53:42;;;;;;;;;;;9.30;99.90;;;;;;5072797;28;19930;-45
2022/04/16 10:56:11;;;;;;;;;;;9.10;99.90;;;;;;5072659;28;19913;-45
2022/04/16 10:58:39;;;;;;;;;;;9.00;99.90;;;;;;5072741;28;20235;-47
2022/04/16 11:01:07;;;;;;;;;;;9.20;99.90;;;;;;5072923;28;19908;-44
2022/04/16 11:03:35;;;;;;;;;;;9.10;99.90;;;;;;5072862;28;19914;-43
2022/04/16 11:06:02;;;;;;;;;;;9.10;99.90;;;;;;5072793;28;20082;-45
2022/04/16 11:08:28;;;;;;;;;;;9.10;99.90;;;;;;5072641;28;20252;-45
2022/04/16 11:10:58;;;;;;;;;;;9.10;99.90;;;;;;5071583;28;19909;-44
2022/04/16 11:13:24;;;;;;;;;;;9.10;99.90;;;;;;5088380;28;19909;-45
2022/04/16 11:15:51;;;;;;;;;;;9.20;99.90;;;;;;5072731;28;19970;-45
2022/04/16 11:18:18;;;;;;;;;;;9.10;99.90;;;;;;5075031;28;19916;-46
2022/04/16 11:20:52;;;;;;;;;;;8.90;99.90;;;;;;5076128;28;19908;-46
2022/04/16 11:23:18;;;;;;;;;;;9.30;99.90;;;;;;5076315;28;19915;-45
2022/04/16 11:34:20;;;;;;;;;;;10.70;99.90;;;;;;5075975;28;19928;-45
2022/04/16 11:36:52;;;;;;;;;;;10.50;99.90;;;;;;5074844;28;20275;-45
2022/04/16 11:39:21;;;;;;;;;;;10.50;99.90;;;;;;5075817;28;19912;-45
2022/04/16 11:41:51;;;;;;;;;;;10.30;99.90;;;;;;5075920;28;20330;-44
2022/04/16 11:44:17;;;;;;;;;;;10.20;99.90;;;;;;5076104;28;19998;-47
2022/04/16 11:46:42;;;;;;;;;;;9.80;99.90;;;;;;5076016;28;19916;-45
2022/04/16 11:49:09;;;;;;;;;;;9.90;99.90;;;;;;5075588;28;19985;-49
2022/04/16 11:51:38;;;;;;;;;;;10.10;99.90;;;;;;5075885;28;19965;-46
2022/04/16 11:54:03;;;;;;;;;;;9.90;99.90;;;;;;5075198;28;19908;-45
2022/04/16 11:56:29;;;;;;;;;;;10.10;99.90;;;;;;5074464;28;20085;-48
2022/04/16 11:58:54;;;;;;;;;;;10.40;99.90;;;;;;5075610;28;19923;-44
2022/04/16 12:01:21;;;;;;;;;;;10.80;99.90;;;;;;5075243;28;20011;-47
2022/04/16 12:03:48;;;;;;;;;;;10.50;99.90;;;;;;5075606;28;19916;-47
2022/04/16 12:06:14;;;;;;;;;;;10.60;99.90;;;;;;5075250;28;19955;-49
2022/04/16 12:08:40;;;;;;;;;;;10.20;99.90;;;;;;5075132;28;19953;-44
2022/04/16 12:11:06;;;;;;;;;;;9.90;99.90;;;;;;5075024;28;19908;-45
2022/04/16 12:13:35;;;;;;;;;;;9.70;99.90;;;;;;5075642;28;20343;-45
2022/04/16 12:16:05;;;;;;;;;;;9.20;99.90;;;;;;5075366;28;19983;-47
2022/04/16 12:18:48;;;;;;;;;;;9.40;99.90;;;;;;5074911;28;19919;-46
2022/04/16 12:21:14;;;;;;;;;;;9.30;99.90;;;;;;5075735;28;19944;-44
2022/04/16 12:23:41;;;;;;;;;;;9.60;99.90;;;;;;5075361;28;20302;-45
2022/04/16 12:26:16;;;;;;;;;;;9.20;99.90;;;;;;5074820;28;19947;-45
2022/04/16 12:28:43;;;;;;;;;;;9.10;99.90;;;;;;5107897;28;20410;-44
2022/04/16 12:31:11;;;;;;;;;;;9.30;99.90;;;;;;5074084;28;19908;-45
2022/04/16 12:33:36;;;;;;;;;;;9.40;99.90;;;;;;5074636;28;19920;-47
2022/04/16 12:36:02;;;;;;;;;;;9.30;99.90;;;;;;5074653;28;20010;-45
2022/04/16 12:38:28;;;;;;;;;;;9.50;99.90;;;;;;5074706;28;19913;-46
2022/04/16 12:41:08;;;;;;;;;;;10.10;99.90;;;;;;5075030;28;19933;-47
2022/04/16 12:43:34;;;;;;;;;;;9.80;99.90;;;;;;5075502;28;19962;-45
2022/04/16 12:45:59;;;;;;;;;;;10.00;99.90;;;;;;5074740;28;20075;-45
2022/04/16 12:48:25;;;;;;;;;;;10.30;99.90;;;;;;5074423;28;19915;-47
2022/04/16 12:50:50;;;;;;;;;;;10.30;99.90;;;;;;5074092;28;19909;-47
2022/04/16 12:53:16;;;;;;;;;;;10.70;99.90;;;;;;5074348;28;19969;-45
2022/04/16 12:55:41;;;;;;;;;;;11.00;99.90;;;;;;5074348;28;19920;-44
2022/04/16 12:58:07;;;;;;;;;;;11.10;99.90;;;;;;5074297;28;20374;-44
2022/04/16 13:00:34;;;;;;;;;;;11.60;99.90;;;;;;5074499;28;19913;-44
2022/04/16 13:03:00;;;;;;;;;;;12.10;99.90;;;;;;5074476;28;20266;-45
2022/04/16 13:05:26;;;;;;;;;;;12.40;99.90;;;;;;5074099;28;19909;-44
2022/04/16 13:07:52;;;;;;;;;;;12.10;99.90;;;;;;5074048;28;19913;-46
2022/04/16 13:10:17;;;;;;;;;;;11.70;99.90;;;;;;5073890;28;20363;-44
2022/04/16 13:12:43;;;;;;;;;;;11.60;99.90;;;;;;5074274;28;19909;-44
2022/04/16 13:15:09;;;;;;;;;;;11.50;99.90;;;;;;5073633;28;19920;-47
2022/04/16 13:17:35;;;;;;;;;;;11.50;99.90;;;;;;5073925;28;19913;-45
2022/04/16 13:20:01;;;;;;;;;;;12.10;99.90;;;;;;5073618;28;19915;-43
2022/04/16 13:22:27;;;;;;;;;;;12.30;99.90;;;;;;5073609;28;19908;-44
2022/04/16 13:24:53;;;;;;;;;;;11.40;99.90;;;;;;5073951;28;20240;-46
2022/04/16 13:27:18;;;;;;;;;;;10.70;99.90;;;;;;5072606;28;20359;-44
2022/04/16 13:29:44;;;;;;;;;;;10.80;99.90;;;;;;5073641;28;19916;-44
2022/04/16 13:32:09;;;;;;;;;;;11.10;99.90;;;;;;5073391;28;19980;-47
2022/04/16 13:34:36;;;;;;;;;;;11.10;99.90;;;;;;5074109;28;19908;-44
2022/04/16 13:37:02;;;;;;;;;;;11.60;99.90;;;;;;5073737;28;19921;-45
2022/04/16 13:42:15;;;;;;;;;;;12.10;99.90;;;;;;5074065;28;19916;-48
2022/04/16 13:44:40;;;;;;;;;;;12.30;99.90;;;;;;5073704;28;20333;-46
2022/04/16 13:47:07;;;;;;;;;;;12.70;99.90;;;;;;5073636;28;19947;-44
2022/04/16 13:49:33;;;;;;;;;;;12.60;99.90;;;;;;5073208;28;20215;-45
2022/04/16 13:51:58;;;;;;;;;;;12.30;99.90;;;;;;5073172;28;20423;-45
2022/04/16 13:54:24;;;;;;;;;;;11.90;99.90;;;;;;5073499;28;20009;-47
2022/04/16 13:56:49;;;;;;;;;;;12.30;99.90;;;;;;5105988;28;20034;-46
2022/04/16 13:59:15;;;;;;;;;;;12.20;99.90;;;;;;5088804;28;20313;-44
2022/04/16 14:01:41;;;;;;;;;;;12.10;99.90;;;;;;5073189;28;19961;-45
2022/04/16 14:04:07;;;;;;;;;;;12.00;99.90;;;;;;5072889;28;19908;-46
2022/04/16 14:06:32;;;;;;;;;;;12.00;99.90;;;;;;5072904;28;19909;-46
2022/04/16 14:08:58;;;;;;;;;;;12.10;99.90;;;;;;5072719;28;19916;-44
2022/04/16 14:11:24;;;;;;;;;;;11.80;99.90;;;;;;5073594;28;20296;-44
2022/04/16 14:13:50;;;;;;;;;;;11.60;99.90;;;;;;5073697;28;19938;-45
2022/04/16 14:16:17;;;;;;;;;;;11.10;99.90;;;;;;5072806;28;19917;-46
2022/04/16 14:18:43;;;;;;;;;;;10.90;99.90;;;;;;5072629;28;19946;-45
2022/04/16 14:21:09;;;;;;;;;;;10.80;99.90;;;;;;5072686;28;20363;-46
2022/04/16 14:23:35;;;;;;;;;;;10.50;99.90;;;;;;5072864;28;19915;-47
2022/04/16 14:26:01;;;;;;;;;;;10.10;99.90;;;;;;5072371;28;19914;-46
2022/04/16 14:28:27;;;;;;;;;;;10.40;99.90;;;;;;5073109;28;19963;-48
2022/04/16 14:30:52;;;;;;;;;;;10.80;99.90;;;;;;5073021;28;19909;-46
2022/04/16 14:33:18;;;;;;;;;;;11.10;99.90;;;;;;5072847;28;19926;-49
2022/04/16 14:35:45;;;;;;;;;;;11.20;99.90;;;;;;5072593;28;19916;-44
2022/04/16 14:38:13;;;;;;;;;;;11.80;99.90;;;;;;5073182;28;19969;-44
2022/04/16 14:40:39;;;;;;;;;;;11.80;99.90;;;;;;5072998;28;19916;-45
2022/04/16 14:43:06;;;;;;;;;;;11.80;99.90;;;;;;5073120;28;19908;-45
2022/04/16 14:45:35;;;;;;;;;;;11.40;99.90;;;;;;5073072;28;19909;-44
2022/04/16 14:48:02;;;;;;;;;;;11.20;99.90;;;;;;5071552;28;19962;-45
2022/04/16 14:50:27;;;;;;;;;;;10.90;99.90;;;;;;5072567;28;19909;-48